sensor_id;sensor_type;location;lat;lon;timestamp;pressure;altitude;pressure_sealevel;temperature
69435;BMP180;56625;54.322;18.582;2023-03-14T00:00:15;98414.20;;;10.60
69435;BMP180;56625;54.322;18.582;2023-03-14T00:03:02;98409.20;;;10.60
69435;BMP180;56625;54.322;18.582;2023-03-14T00:05:29;98407.00;;;10.60
69435;BMP180;56625;54.322;18.582;2023-03-14T00:07:56;98414.60;;;10.60
69435;BMP180;56625;54.322;18.582;2023-03-14T00:10:22;98410.00;;;10.60
69435;BMP180;56625;54.322;18.582;2023-03-14T00:12:49;98420.60;;;10.60
69435;BMP180;56625;54.322;18.582;2023-03-14T00:15:15;98418.40;;;10.58
69435;BMP180;56625;54.322;18.582;2023-03-14T00:17:43;98420.20;;;10.60
69435;BMP180;56625;54.322;18.582;2023-03-14T00:20:11;98431.20;;;10.60
69435;BMP180;56625;54.322;18.582;2023-03-14T00:22:39;98436.60;;;10.60
69435;BMP180;56625;54.322;18.582;2023-03-14T00:25:10;98446.60;;;10.60
69435;BMP180;56625;54.322;18.582;2023-03-14T00:27:37;98443.60;;;10.50
69435;BMP180;56625;54.322;18.582;2023-03-14T00:30:07;98423.80;;;10.50
69435;BMP180;56625;54.322;18.582;2023-03-14T00:32:34;98417.60;;;10.50
69435;BMP180;56625;54.322;18.582;2023-03-14T00:35:00;98406.80;;;10.50
69435;BMP180;56625;54.322;18.582;2023-03-14T00:37:27;98417.00;;;10.50
69435;BMP180;56625;54.322;18.582;2023-03-14T00:39:54;98415.20;;;10.50
69435;BMP180;56625;54.322;18.582;2023-03-14T00:42:20;98399.60;;;10.50
69435;BMP180;56625;54.322;18.582;2023-03-14T00:44:47;98388.60;;;10.50
69435;BMP180;56625;54.322;18.582;2023-03-14T00:47:13;98394.00;;;10.50
69435;BMP180;56625;54.322;18.582;2023-03-14T00:49:40;98402.40;;;10.58
69435;BMP180;56625;54.322;18.582;2023-03-14T00:52:09;98403.80;;;10.50
69435;BMP180;56625;54.322;18.582;2023-03-14T00:54:36;98405.20;;;10.50
69435;BMP180;56625;54.322;18.582;2023-03-14T00:57:02;98410.20;;;10.60
69435;BMP180;56625;54.322;18.582;2023-03-14T00:59:29;98410.00;;;10.60
69435;BMP180;56625;54.322;18.582;2023-03-14T01:01:58;98423.40;;;10.58
69435;BMP180;56625;54.322;18.582;2023-03-14T01:04:25;98416.60;;;10.56
69435;BMP180;56625;54.322;18.582;2023-03-14T01:06:51;98414.20;;;10.60
69435;BMP180;56625;54.322;18.582;2023-03-14T01:09:18;98415.20;;;10.60
69435;BMP180;56625;54.322;18.582;2023-03-14T01:11:44;98405.80;;;10.60
69435;BMP180;56625;54.322;18.582;2023-03-14T01:14:13;98390.00;;;10.60
69435;BMP180;56625;54.322;18.582;2023-03-14T01:16:40;98389.60;;;10.60
69435;BMP180;56625;54.322;18.582;2023-03-14T01:19:08;98382.40;;;10.60
69435;BMP180;56625;54.322;18.582;2023-03-14T01:21:36;98375.20;;;10.60
69435;BMP180;56625;54.322;18.582;2023-03-14T01:24:05;98385.20;;;10.60
69435;BMP180;56625;54.322;18.582;2023-03-14T01:26:34;98397.60;;;10.60
69435;BMP180;56625;54.322;18.582;2023-03-14T01:29:02;98377.60;;;10.60
69435;BMP180;56625;54.322;18.582;2023-03-14T01:31:30;98375.80;;;10.60
69435;BMP180;56625;54.322;18.582;2023-03-14T01:33:57;98367.00;;;10.60
69435;BMP180;56625;54.322;18.582;2023-03-14T01:36:24;98366.00;;;10.60
69435;BMP180;56625;54.322;18.582;2023-03-14T01:38:50;98377.40;;;10.60
69435;BMP180;56625;54.322;18.582;2023-03-14T01:41:25;98371.80;;;10.60
69435;BMP180;56625;54.322;18.582;2023-03-14T01:43:52;98373.00;;;10.60
69435;BMP180;56625;54.322;18.582;2023-03-14T01:46:44;98367.80;;;10.68
69435;BMP180;56625;54.322;18.582;2023-03-14T01:49:33;98361.00;;;10.64
69435;BMP180;56625;54.322;18.582;2023-03-14T01:52:10;98371.20;;;10.70
69435;BMP180;56625;54.322;18.582;2023-03-14T01:55:17;98366.80;;;10.60
69435;BMP180;56625;54.322;18.582;2023-03-14T01:57:54;98359.00;;;10.60
69435;BMP180;56625;54.322;18.582;2023-03-14T02:00:24;98352.80;;;10.60
69435;BMP180;56625;54.322;18.582;2023-03-14T02:02:58;98358.60;;;10.60
69435;BMP180;56625;54.322;18.582;2023-03-14T02:05:32;98350.20;;;10.60
69435;BMP180;56625;54.322;18.582;2023-03-14T02:08:02;98340.80;;;10.60
69435;BMP180;56625;54.322;18.582;2023-03-14T02:10:40;98335.00;;;10.60
69435;BMP180;56625;54.322;18.582;2023-03-14T02:13:11;98332.40;;;10.52
69435;BMP180;56625;54.322;18.582;2023-03-14T02:15:38;98331.20;;;10.50
69435;BMP180;56625;54.322;18.582;2023-03-14T02:18:06;98323.80;;;10.50
69435;BMP180;56625;54.322;18.582;2023-03-14T02:23:04;98341.40;;;10.42
69435;BMP180;56625;54.322;18.582;2023-03-14T02:28:07;98343.40;;;10.40
69435;BMP180;56625;54.322;18.582;2023-03-14T02:30:34;98341.60;;;10.40
69435;BMP180;56625;54.322;18.582;2023-03-14T02:33:12;98334.60;;;10.40
69435;BMP180;56625;54.322;18.582;2023-03-14T02:36:03;98336.00;;;10.40
69435;BMP180;56625;54.322;18.582;2023-03-14T02:41:08;98338.40;;;10.40
69435;BMP180;56625;54.322;18.582;2023-03-14T02:43:34;98333.20;;;10.30
69435;BMP180;56625;54.322;18.582;2023-03-14T02:46:04;98331.60;;;10.30
69435;BMP180;56625;54.322;18.582;2023-03-14T02:48:38;98316.60;;;10.30
69435;BMP180;56625;54.322;18.582;2023-03-14T02:51:06;98309.20;;;10.30
69435;BMP180;56625;54.322;18.582;2023-03-14T02:53:36;98325.40;;;10.30
69435;BMP180;56625;54.322;18.582;2023-03-14T02:56:04;98319.60;;;10.30
69435;BMP180;56625;54.322;18.582;2023-03-14T02:58:31;98329.00;;;10.30
69435;BMP180;56625;54.322;18.582;2023-03-14T03:00:58;98337.00;;;10.26
69435;BMP180;56625;54.322;18.582;2023-03-14T03:03:24;98350.60;;;10.20
69435;BMP180;56625;54.322;18.582;2023-03-14T03:05:54;98363.40;;;10.20
69435;BMP180;56625;54.322;18.582;2023-03-14T03:08:24;98375.60;;;10.24
69435;BMP180;56625;54.322;18.582;2023-03-14T03:10:52;98373.00;;;10.30
69435;BMP180;56625;54.322;18.582;2023-03-14T03:13:20;98367.80;;;10.30
69435;BMP180;56625;54.322;18.582;2023-03-14T03:15:46;98369.20;;;10.28
69435;BMP180;56625;54.322;18.582;2023-03-14T03:18:13;98370.40;;;10.26
69435;BMP180;56625;54.322;18.582;2023-03-14T03:20:39;98383.40;;;10.20
69435;BMP180;56625;54.322;18.582;2023-03-14T03:23:06;98387.80;;;10.30
69435;BMP180;56625;54.322;18.582;2023-03-14T03:25:33;98399.40;;;10.30
69435;BMP180;56625;54.322;18.582;2023-03-14T03:28:00;98396.80;;;10.30
69435;BMP180;56625;54.322;18.582;2023-03-14T03:30:27;98401.60;;;10.30
69435;BMP180;56625;54.322;18.582;2023-03-14T03:32:54;98405.00;;;10.38
69435;BMP180;56625;54.322;18.582;2023-03-14T03:35:20;98398.60;;;10.40
69435;BMP180;56625;54.322;18.582;2023-03-14T03:37:47;98393.60;;;10.40
69435;BMP180;56625;54.322;18.582;2023-03-14T03:40:13;98403.00;;;10.50
69435;BMP180;56625;54.322;18.582;2023-03-14T03:42:40;98405.80;;;10.50
69435;BMP180;56625;54.322;18.582;2023-03-14T03:45:07;98408.00;;;10.50
69435;BMP180;56625;54.322;18.582;2023-03-14T03:47:34;98413.80;;;10.52
69435;BMP180;56625;54.322;18.582;2023-03-14T03:50:00;98411.60;;;10.60
69435;BMP180;56625;54.322;18.582;2023-03-14T03:52:27;98414.60;;;10.60
69435;BMP180;56625;54.322;18.582;2023-03-14T03:54:54;98408.20;;;10.60
69435;BMP180;56625;54.322;18.582;2023-03-14T03:57:20;98398.80;;;10.60
69435;BMP180;56625;54.322;18.582;2023-03-14T03:59:47;98393.80;;;10.60
69435;BMP180;56625;54.322;18.582;2023-03-14T04:02:13;98401.00;;;10.60
69435;BMP180;56625;54.322;18.582;2023-03-14T04:04:40;98401.60;;;10.70
69435;BMP180;56625;54.322;18.582;2023-03-14T04:07:06;98393.40;;;10.70
69435;BMP180;56625;54.322;18.582;2023-03-14T04:09:33;98380.60;;;10.70
69435;BMP180;56625;54.322;18.582;2023-03-14T04:12:00;98380.20;;;10.70
69435;BMP180;56625;54.322;18.582;2023-03-14T04:14:26;98369.60;;;10.70
69435;BMP180;56625;54.322;18.582;2023-03-14T04:16:53;98375.60;;;10.70
69435;BMP180;56625;54.322;18.582;2023-03-14T04:19:20;98378.60;;;10.68
69435;BMP180;56625;54.322;18.582;2023-03-14T04:21:49;98382.20;;;10.70
69435;BMP180;56625;54.322;18.582;2023-03-14T04:24:17;98373.00;;;10.70
69435;BMP180;56625;54.322;18.582;2023-03-14T04:26:43;98359.20;;;10.70
69435;BMP180;56625;54.322;18.582;2023-03-14T04:29:10;98348.60;;;10.70
69435;BMP180;56625;54.322;18.582;2023-03-14T04:31:39;98346.40;;;10.70
69435;BMP180;56625;54.322;18.582;2023-03-14T04:34:05;98345.60;;;10.70
69435;BMP180;56625;54.322;18.582;2023-03-14T04:36:32;98341.80;;;10.70
69435;BMP180;56625;54.322;18.582;2023-03-14T04:38:58;98341.80;;;10.70
69435;BMP180;56625;54.322;18.582;2023-03-14T04:41:25;98337.40;;;10.70
69435;BMP180;56625;54.322;18.582;2023-03-14T04:43:51;98336.20;;;10.64
69435;BMP180;56625;54.322;18.582;2023-03-14T04:46:18;98333.20;;;10.62
69435;BMP180;56625;54.322;18.582;2023-03-14T04:48:44;98336.00;;;10.60
69435;BMP180;56625;54.322;18.582;2023-03-14T04:51:11;98328.00;;;10.60
69435;BMP180;56625;54.322;18.582;2023-03-14T04:53:37;98323.00;;;10.60
69435;BMP180;56625;54.322;18.582;2023-03-14T04:56:05;98318.00;;;10.60
69435;BMP180;56625;54.322;18.582;2023-03-14T04:58:32;98309.20;;;10.54
69435;BMP180;56625;54.322;18.582;2023-03-14T05:01:04;98307.60;;;10.50
69435;BMP180;56625;54.322;18.582;2023-03-14T05:03:31;98293.40;;;10.50
69435;BMP180;56625;54.322;18.582;2023-03-14T05:05:57;98285.60;;;10.50
69435;BMP180;56625;54.322;18.582;2023-03-14T05:08:25;98287.00;;;10.50
69435;BMP180;56625;54.322;18.582;2023-03-14T05:10:56;98273.40;;;10.42
69435;BMP180;56625;54.322;18.582;2023-03-14T05:13:24;98267.20;;;10.40
69435;BMP180;56625;54.322;18.582;2023-03-14T05:15:50;98265.40;;;10.34
69435;BMP180;56625;54.322;18.582;2023-03-14T05:18:18;98262.40;;;10.30
69435;BMP180;56625;54.322;18.582;2023-03-14T05:20:45;98256.40;;;10.30
69435;BMP180;56625;54.322;18.582;2023-03-14T05:23:11;98253.00;;;10.30
69435;BMP180;56625;54.322;18.582;2023-03-14T05:25:38;98247.00;;;10.26
69435;BMP180;56625;54.322;18.582;2023-03-14T05:28:04;98242.80;;;10.24
69435;BMP180;56625;54.322;18.582;2023-03-14T05:30:31;98248.00;;;10.30
69435;BMP180;56625;54.322;18.582;2023-03-14T05:32:58;98259.40;;;10.30
69435;BMP180;56625;54.322;18.582;2023-03-14T05:35:25;98260.80;;;10.30
69435;BMP180;56625;54.322;18.582;2023-03-14T05:37:51;98264.80;;;10.30
69435;BMP180;56625;54.322;18.582;2023-03-14T05:40:18;98272.00;;;10.30
69435;BMP180;56625;54.322;18.582;2023-03-14T05:42:45;98281.00;;;10.30
69435;BMP180;56625;54.322;18.582;2023-03-14T05:45:11;98288.20;;;10.30
69435;BMP180;56625;54.322;18.582;2023-03-14T05:47:38;98288.60;;;10.30
69435;BMP180;56625;54.322;18.582;2023-03-14T05:50:05;98294.40;;;10.30
69435;BMP180;56625;54.322;18.582;2023-03-14T05:52:31;98302.20;;;10.30
69435;BMP180;56625;54.322;18.582;2023-03-14T05:54:58;98299.60;;;10.30
69435;BMP180;56625;54.322;18.582;2023-03-14T05:57:24;98303.20;;;10.32
69435;BMP180;56625;54.322;18.582;2023-03-14T05:59:51;98300.20;;;10.36
69435;BMP180;56625;54.322;18.582;2023-03-14T06:02:17;98297.60;;;10.40
69435;BMP180;56625;54.322;18.582;2023-03-14T06:04:44;98296.20;;;10.40
69435;BMP180;56625;54.322;18.582;2023-03-14T06:07:10;98300.40;;;10.40
69435;BMP180;56625;54.322;18.582;2023-03-14T06:09:37;98308.00;;;10.40
69435;BMP180;56625;54.322;18.582;2023-03-14T06:12:04;98306.60;;;10.40
69435;BMP180;56625;54.322;18.582;2023-03-14T06:14:31;98308.00;;;10.40
69435;BMP180;56625;54.322;18.582;2023-03-14T06:16:57;98311.60;;;10.40
69435;BMP180;56625;54.322;18.582;2023-03-14T06:19:25;98314.00;;;10.40
69435;BMP180;56625;54.322;18.582;2023-03-14T06:21:52;98315.20;;;10.40
69435;BMP180;56625;54.322;18.582;2023-03-14T06:24:19;98319.00;;;10.42
69435;BMP180;56625;54.322;18.582;2023-03-14T06:26:46;98321.20;;;10.50
69435;BMP180;56625;54.322;18.582;2023-03-14T06:29:12;98320.80;;;10.50
69435;BMP180;56625;54.322;18.582;2023-03-14T06:31:39;98316.20;;;10.50
69435;BMP180;56625;54.322;18.582;2023-03-14T06:34:06;98311.60;;;10.50
69435;BMP180;56625;54.322;18.582;2023-03-14T06:36:33;98308.80;;;10.52
69435;BMP180;56625;54.322;18.582;2023-03-14T06:38:59;98317.00;;;10.60
69435;BMP180;56625;54.322;18.582;2023-03-14T06:41:26;98319.00;;;10.60
69435;BMP180;56625;54.322;18.582;2023-03-14T06:43:53;98325.40;;;10.60
69435;BMP180;56625;54.322;18.582;2023-03-14T06:46:22;98316.00;;;10.66
69435;BMP180;56625;54.322;18.582;2023-03-14T06:48:49;98311.60;;;10.70
69435;BMP180;56625;54.322;18.582;2023-03-14T06:51:16;98308.20;;;10.70
69435;BMP180;56625;54.322;18.582;2023-03-14T06:53:42;98309.20;;;10.72
69435;BMP180;56625;54.322;18.582;2023-03-14T06:56:09;98313.80;;;10.80
69435;BMP180;56625;54.322;18.582;2023-03-14T06:58:35;98310.00;;;10.80
69435;BMP180;56625;54.322;18.582;2023-03-14T07:01:02;98311.00;;;10.80
69435;BMP180;56625;54.322;18.582;2023-03-14T07:03:29;98307.60;;;10.90
69435;BMP180;56625;54.322;18.582;2023-03-14T07:06:01;98316.40;;;10.90
69435;BMP180;56625;54.322;18.582;2023-03-14T07:08:27;98316.20;;;10.90
69435;BMP180;56625;54.322;18.582;2023-03-14T07:10:56;98324.00;;;11.00
69435;BMP180;56625;54.322;18.582;2023-03-14T07:13:23;98320.60;;;11.00
69435;BMP180;56625;54.322;18.582;2023-03-14T07:15:50;98322.00;;;11.02
69435;BMP180;56625;54.322;18.582;2023-03-14T07:18:16;98326.00;;;11.10
69435;BMP180;56625;54.322;18.582;2023-03-14T07:20:45;98325.80;;;11.10
69435;BMP180;56625;54.322;18.582;2023-03-14T07:23:12;98320.40;;;11.10
69435;BMP180;56625;54.322;18.582;2023-03-14T07:25:38;98318.20;;;11.20
69435;BMP180;56625;54.322;18.582;2023-03-14T07:28:05;98314.80;;;11.28
69435;BMP180;56625;54.322;18.582;2023-03-14T07:30:32;98303.40;;;11.30
69435;BMP180;56625;54.322;18.582;2023-03-14T07:32:59;98299.20;;;11.40
69435;BMP180;56625;54.322;18.582;2023-03-14T07:35:25;98290.60;;;11.50
69435;BMP180;56625;54.322;18.582;2023-03-14T07:37:52;98290.80;;;11.60
69435;BMP180;56625;54.322;18.582;2023-03-14T07:40:19;98280.20;;;11.66
69435;BMP180;56625;54.322;18.582;2023-03-14T07:42:46;98272.00;;;11.70
69435;BMP180;56625;54.322;18.582;2023-03-14T07:45:12;98277.40;;;11.80
69435;BMP180;56625;54.322;18.582;2023-03-14T07:47:39;98271.20;;;11.88
69435;BMP180;56625;54.322;18.582;2023-03-14T07:50:07;98278.20;;;11.90
69435;BMP180;56625;54.322;18.582;2023-03-14T07:52:34;98280.80;;;11.98
69435;BMP180;56625;54.322;18.582;2023-03-14T07:55:00;98282.00;;;12.00
69435;BMP180;56625;54.322;18.582;2023-03-14T07:57:27;98266.80;;;12.00
69435;BMP180;56625;54.322;18.582;2023-03-14T07:59:53;98270.00;;;12.10
69435;BMP180;56625;54.322;18.582;2023-03-14T08:02:19;98268.20;;;12.10
69435;BMP180;56625;54.322;18.582;2023-03-14T08:04:48;98261.40;;;12.10
69435;BMP180;56625;54.322;18.582;2023-03-14T08:07:16;98250.60;;;12.20
69435;BMP180;56625;54.322;18.582;2023-03-14T08:09:43;98249.60;;;12.20
69435;BMP180;56625;54.322;18.582;2023-03-14T08:12:10;98260.60;;;12.20
69435;BMP180;56625;54.322;18.582;2023-03-14T08:14:36;98264.40;;;12.22
69435;BMP180;56625;54.322;18.582;2023-03-14T08:17:04;98252.00;;;12.20
69435;BMP180;56625;54.322;18.582;2023-03-14T08:19:31;98247.40;;;12.26
69435;BMP180;56625;54.322;18.582;2023-03-14T08:21:57;98245.80;;;12.20
69435;BMP180;56625;54.322;18.582;2023-03-14T08:24:24;98237.80;;;12.24
69435;BMP180;56625;54.322;18.582;2023-03-14T08:26:50;98235.60;;;12.28
69435;BMP180;56625;54.322;18.582;2023-03-14T08:29:17;98239.40;;;12.28
69435;BMP180;56625;54.322;18.582;2023-03-14T08:31:43;98243.00;;;12.30
69435;BMP180;56625;54.322;18.582;2023-03-14T08:34:10;98235.60;;;12.40
69435;BMP180;56625;54.322;18.582;2023-03-14T08:36:37;98231.80;;;12.48
69435;BMP180;56625;54.322;18.582;2023-03-14T08:39:03;98224.80;;;12.44
69435;BMP180;56625;54.322;18.582;2023-03-14T08:41:35;98226.60;;;12.48
69435;BMP180;56625;54.322;18.582;2023-03-14T08:44:10;98216.00;;;12.40
69435;BMP180;56625;54.322;18.582;2023-03-14T08:46:37;98205.40;;;12.40
69435;BMP180;56625;54.322;18.582;2023-03-14T08:49:04;98205.20;;;12.40
69435;BMP180;56625;54.322;18.582;2023-03-14T08:51:31;98206.60;;;12.50
69435;BMP180;56625;54.322;18.582;2023-03-14T08:53:57;98201.20;;;12.50
69435;BMP180;56625;54.322;18.582;2023-03-14T08:56:24;98199.00;;;12.50
69435;BMP180;56625;54.322;18.582;2023-03-14T08:58:52;98212.60;;;12.50
69435;BMP180;56625;54.322;18.582;2023-03-14T09:01:18;98219.60;;;12.58
69435;BMP180;56625;54.322;18.582;2023-03-14T09:03:45;98221.40;;;12.60
69435;BMP180;56625;54.322;18.582;2023-03-14T09:06:13;98214.60;;;12.60
69435;BMP180;56625;54.322;18.582;2023-03-14T09:08:39;98215.60;;;12.64
69435;BMP180;56625;54.322;18.582;2023-03-14T09:11:07;98220.60;;;12.68
69435;BMP180;56625;54.322;18.582;2023-03-14T09:13:35;98211.60;;;12.70
69435;BMP180;56625;54.322;18.582;2023-03-14T09:16:03;98204.20;;;12.80
69435;BMP180;56625;54.322;18.582;2023-03-14T09:18:30;98207.40;;;12.80
69435;BMP180;56625;54.322;18.582;2023-03-14T09:20:56;98208.20;;;12.70
69435;BMP180;56625;54.322;18.582;2023-03-14T09:23:23;98212.60;;;12.78
69435;BMP180;56625;54.322;18.582;2023-03-14T09:25:55;98222.60;;;12.80
69435;BMP180;56625;54.322;18.582;2023-03-14T09:28:22;98237.20;;;12.90
69435;BMP180;56625;54.322;18.582;2023-03-14T09:30:49;98239.80;;;12.90
69435;BMP180;56625;54.322;18.582;2023-03-14T09:33:17;98238.00;;;12.90
69435;BMP180;56625;54.322;18.582;2023-03-14T09:35:43;98238.80;;;12.90
69435;BMP180;56625;54.322;18.582;2023-03-14T09:38:10;98250.60;;;12.90
69435;BMP180;56625;54.322;18.582;2023-03-14T09:40:38;98251.00;;;12.90
69435;BMP180;56625;54.322;18.582;2023-03-14T09:43:05;98238.00;;;12.90
69435;BMP180;56625;54.322;18.582;2023-03-14T09:45:38;98236.60;;;12.96
69435;BMP180;56625;54.322;18.582;2023-03-14T09:48:23;98242.00;;;12.90
69435;BMP180;56625;54.322;18.582;2023-03-14T09:50:55;98246.60;;;12.88
69435;BMP180;56625;54.322;18.582;2023-03-14T09:53:28;98249.00;;;12.80
69435;BMP180;56625;54.322;18.582;2023-03-14T09:55:58;98246.00;;;12.80
69435;BMP180;56625;54.322;18.582;2023-03-14T09:58:26;98244.60;;;12.80
69435;BMP180;56625;54.322;18.582;2023-03-14T10:00:56;98259.80;;;12.70
69435;BMP180;56625;54.322;18.582;2023-03-14T10:03:29;98264.20;;;12.70
69435;BMP180;56625;54.322;18.582;2023-03-14T10:05:57;98256.40;;;12.60
69435;BMP180;56625;54.322;18.582;2023-03-14T10:08:24;98247.00;;;12.50
69435;BMP180;56625;54.322;18.582;2023-03-14T10:10:51;98249.40;;;12.50
69435;BMP180;56625;54.322;18.582;2023-03-14T10:13:27;98249.60;;;12.50
69435;BMP180;56625;54.322;18.582;2023-03-14T10:16:02;98260.80;;;12.48
69435;BMP180;56625;54.322;18.582;2023-03-14T10:18:31;98254.00;;;12.40
69435;BMP180;56625;54.322;18.582;2023-03-14T10:21:30;98255.40;;;12.40
69435;BMP180;56625;54.322;18.582;2023-03-14T10:24:22;98256.60;;;12.32
69435;BMP180;56625;54.322;18.582;2023-03-14T10:27:18;98260.00;;;12.40
69435;BMP180;56625;54.322;18.582;2023-03-14T10:29:58;98264.00;;;12.40
69435;BMP180;56625;54.322;18.582;2023-03-14T10:32:37;98269.60;;;12.40
69435;BMP180;56625;54.322;18.582;2023-03-14T10:38:00;98264.40;;;12.40
69435;BMP180;56625;54.322;18.582;2023-03-14T10:40:30;98272.60;;;12.40
69435;BMP180;56625;54.322;18.582;2023-03-14T10:42:59;98268.80;;;12.50
69435;BMP180;56625;54.322;18.582;2023-03-14T10:45:43;98270.00;;;12.50
69435;BMP180;56625;54.322;18.582;2023-03-14T10:53:25;98278.60;;;12.70
69435;BMP180;56625;54.322;18.582;2023-03-14T10:55:55;98278.00;;;12.70
69435;BMP180;56625;54.322;18.582;2023-03-14T10:58:26;98269.40;;;12.60
69435;BMP180;56625;54.322;18.582;2023-03-14T11:01:13;98261.00;;;12.64
69435;BMP180;56625;54.322;18.582;2023-03-14T11:03:53;98248.00;;;12.68
69435;BMP180;56625;54.322;18.582;2023-03-14T11:06:36;98254.20;;;12.70
69435;BMP180;56625;54.322;18.582;2023-03-14T11:09:21;98246.20;;;12.70
69435;BMP180;56625;54.322;18.582;2023-03-14T11:11:49;98238.60;;;12.70
69435;BMP180;56625;54.322;18.582;2023-03-14T11:14:36;98237.00;;;12.70
69435;BMP180;56625;54.322;18.582;2023-03-14T11:17:15;98223.20;;;12.74
69435;BMP180;56625;54.322;18.582;2023-03-14T11:20:22;98222.00;;;12.90
69435;BMP180;56625;54.322;18.582;2023-03-14T11:26:24;98209.60;;;13.40
69435;BMP180;56625;54.322;18.582;2023-03-14T11:29:32;98216.60;;;13.30
69435;BMP180;56625;54.322;18.582;2023-03-14T11:32:18;98215.00;;;13.40
69435;BMP180;56625;54.322;18.582;2023-03-14T11:34:54;98220.00;;;13.30
69435;BMP180;56625;54.322;18.582;2023-03-14T11:37:34;98219.20;;;13.30
69435;BMP180;56625;54.322;18.582;2023-03-14T11:40:18;98223.20;;;13.30
69435;BMP180;56625;54.322;18.582;2023-03-14T11:42:56;98221.60;;;13.30
69435;BMP180;56625;54.322;18.582;2023-03-14T11:45:33;98223.20;;;13.30
69435;BMP180;56625;54.322;18.582;2023-03-14T11:48:45;98209.80;;;13.38
69435;BMP180;56625;54.322;18.582;2023-03-14T11:51:29;98198.60;;;13.50
69435;BMP180;56625;54.322;18.582;2023-03-14T11:54:17;98205.40;;;13.80
69435;BMP180;56625;54.322;18.582;2023-03-14T11:56:57;98195.20;;;13.90
69435;BMP180;56625;54.322;18.582;2023-03-14T11:59:38;98190.80;;;14.00
69435;BMP180;56625;54.322;18.582;2023-03-14T12:13:10;98210.00;;;13.76
69435;BMP180;56625;54.322;18.582;2023-03-14T12:15:49;98213.00;;;13.90
69435;BMP180;56625;54.322;18.582;2023-03-14T12:21:09;98201.00;;;13.90
69435;BMP180;56625;54.322;18.582;2023-03-14T12:23:48;98204.80;;;14.00
69435;BMP180;56625;54.322;18.582;2023-03-14T12:31:47;98208.00;;;13.70
69435;BMP180;56625;54.322;18.582;2023-03-14T12:39:31;98208.00;;;13.70
69435;BMP180;56625;54.322;18.582;2023-03-14T12:44:48;98194.40;;;13.94
69435;BMP180;56625;54.322;18.582;2023-03-14T12:49:50;98191.00;;;14.32
69435;BMP180;56625;54.322;18.582;2023-03-14T12:52:41;98190.80;;;14.40
69435;BMP180;56625;54.322;18.582;2023-03-14T12:55:26;98188.40;;;14.50
69435;BMP180;56625;54.322;18.582;2023-03-14T12:58:39;98185.20;;;14.64
69435;BMP180;56625;54.322;18.582;2023-03-14T13:01:19;98189.40;;;14.60
69435;BMP180;56625;54.322;18.582;2023-03-14T13:04:03;98185.80;;;14.60
69435;BMP180;56625;54.322;18.582;2023-03-14T13:06:58;98196.60;;;14.60
69435;BMP180;56625;54.322;18.582;2023-03-14T13:12:23;98196.20;;;14.22
69435;BMP180;56625;54.322;18.582;2023-03-14T13:14:53;98188.40;;;14.20
69435;BMP180;56625;54.322;18.582;2023-03-14T13:17:41;98184.80;;;14.10
69435;BMP180;56625;54.322;18.582;2023-03-14T13:21:22;98186.00;;;14.10
69435;BMP180;56625;54.322;18.582;2023-03-14T13:23:30;98178.80;;;14.06
69435;BMP180;56625;54.322;18.582;2023-03-14T13:26:00;98176.40;;;14.10
69435;BMP180;56625;54.322;18.582;2023-03-14T13:28:29;98174.80;;;14.20
69435;BMP180;56625;54.322;18.582;2023-03-14T13:31:02;98167.40;;;14.20
69435;BMP180;56625;54.322;18.582;2023-03-14T13:33:31;98171.40;;;14.20
69435;BMP180;56625;54.322;18.582;2023-03-14T13:36:05;98174.80;;;14.20
69435;BMP180;56625;54.322;18.582;2023-03-14T13:38:36;98182.60;;;14.20
69435;BMP180;56625;54.322;18.582;2023-03-14T13:41:07;98179.80;;;14.20
69435;BMP180;56625;54.322;18.582;2023-03-14T13:43:43;98172.40;;;14.20
69435;BMP180;56625;54.322;18.582;2023-03-14T13:46:23;98182.20;;;14.30
69435;BMP180;56625;54.322;18.582;2023-03-14T13:48:57;98186.80;;;14.40
69435;BMP180;56625;54.322;18.582;2023-03-14T13:51:25;98185.00;;;14.46
69435;BMP180;56625;54.322;18.582;2023-03-14T13:53:55;98193.40;;;14.40
69435;BMP180;56625;54.322;18.582;2023-03-14T13:56:28;98181.00;;;14.50
69435;BMP180;56625;54.322;18.582;2023-03-14T13:58:55;98183.40;;;14.70
69435;BMP180;56625;54.322;18.582;2023-03-14T14:03:57;98180.40;;;14.70
69435;BMP180;56625;54.322;18.582;2023-03-14T14:06:32;98178.80;;;14.70
69435;BMP180;56625;54.322;18.582;2023-03-14T14:09:11;98185.60;;;14.60
69435;BMP180;56625;54.322;18.582;2023-03-14T14:15:14;98189.80;;;14.50
69435;BMP180;56625;54.322;18.582;2023-03-14T14:17:59;98189.20;;;14.54
69435;BMP180;56625;54.322;18.582;2023-03-14T14:20:34;98187.40;;;14.60
69435;BMP180;56625;54.322;18.582;2023-03-14T14:23:06;98201.00;;;14.60
69435;BMP180;56625;54.322;18.582;2023-03-14T14:25:39;98199.80;;;14.42
69435;BMP180;56625;54.322;18.582;2023-03-14T14:28:34;98205.80;;;14.28
69435;BMP180;56625;54.322;18.582;2023-03-14T14:31:22;98206.40;;;14.00
69435;BMP180;56625;54.322;18.582;2023-03-14T14:34:03;98206.80;;;13.80
69435;BMP180;56625;54.322;18.582;2023-03-14T14:36:39;98207.80;;;13.70
69435;BMP180;56625;54.322;18.582;2023-03-14T14:39:25;98214.80;;;13.60
69435;BMP180;56625;54.322;18.582;2023-03-14T14:41:53;98215.80;;;13.50
69435;BMP180;56625;54.322;18.582;2023-03-14T14:44:32;98209.60;;;13.40
69435;BMP180;56625;54.322;18.582;2023-03-14T14:47:03;98217.20;;;13.30
69435;BMP180;56625;54.322;18.582;2023-03-14T14:49:33;98212.60;;;13.30
69435;BMP180;56625;54.322;18.582;2023-03-14T14:52:16;98210.20;;;13.26
69435;BMP180;56625;54.322;18.582;2023-03-14T14:54:51;98217.60;;;13.20
69435;BMP180;56625;54.322;18.582;2023-03-14T14:57:28;98213.80;;;13.20
69435;BMP180;56625;54.322;18.582;2023-03-14T15:00:05;98206.40;;;13.18
69435;BMP180;56625;54.322;18.582;2023-03-14T15:02:40;98210.60;;;13.12
69435;BMP180;56625;54.322;18.582;2023-03-14T15:05:24;98208.20;;;13.10
69435;BMP180;56625;54.322;18.582;2023-03-14T15:07:51;98203.80;;;13.18
69435;BMP180;56625;54.322;18.582;2023-03-14T15:10:21;98200.60;;;13.20
69435;BMP180;56625;54.322;18.582;2023-03-14T15:12:49;98205.00;;;13.22
69435;BMP180;56625;54.322;18.582;2023-03-14T15:15:17;98205.20;;;13.20